sensor_id;sensor_type;location;lat;lon;timestamp;P1;durP1;ratioP1;P2;durP2;ratioP2
70997;SDS011;58663;52.040;4.634;2023-04-05T00:00:56;9.57;;;4.97;;
70997;SDS011;58663;52.040;4.634;2023-04-05T00:03:21;8.48;;;5.15;;
70997;SDS011;58663;52.040;4.634;2023-04-05T00:05:47;8.65;;;4.80;;
70997;SDS011;58663;52.040;4.634;2023-04-05T00:08:14;6.70;;;4.47;;
70997;SDS011;58663;52.040;4.634;2023-04-05T00:10:47;9.18;;;4.50;;
70997;SDS011;58663;52.040;4.634;2023-04-05T00:13:13;12.75;;;4.70;;
70997;SDS011;58663;52.040;4.634;2023-04-05T00:15:39;8.77;;;4.70;;
70997;SDS011;58663;52.040;4.634;2023-04-05T00:18:05;6.88;;;4.63;;
70997;SDS011;58663;52.040;4.634;2023-04-05T00:20:30;9.25;;;4.75;;
70997;SDS011;58663;52.040;4.634;2023-04-05T00:22:55;10.38;;;5.18;;
70997;SDS011;58663;52.040;4.634;2023-04-05T00:25:21;11.05;;;5.35;;
70997;SDS011;58663;52.040;4.634;2023-04-05T00:27:46;15.32;;;5.53;;
70997;SDS011;58663;52.040;4.634;2023-04-05T00:30:12;8.65;;;5.22;;
70997;SDS011;58663;52.040;4.634;2023-04-05T00:32:46;10.43;;;5.40;;
70997;SDS011;58663;52.040;4.634;2023-04-05T00:35:12;9.20;;;5.57;;
70997;SDS011;58663;52.040;4.634;2023-04-05T00:37:37;9.43;;;5.13;;
70997;SDS011;58663;52.040;4.634;2023-04-05T00:40:02;8.85;;;5.60;;
70997;SDS011;58663;52.040;4.634;2023-04-05T00:42:28;11.15;;;5.30;;
70997;SDS011;58663;52.040;4.634;2023-04-05T00:44:53;9.88;;;5.47;;
70997;SDS011;58663;52.040;4.634;2023-04-05T00:47:19;10.40;;;4.88;;
70997;SDS011;58663;52.040;4.634;2023-04-05T00:49:45;12.40;;;5.30;;
70997;SDS011;58663;52.040;4.634;2023-04-05T00:52:10;8.77;;;5.63;;
70997;SDS011;58663;52.040;4.634;2023-04-05T00:54:37;11.48;;;5.47;;
70997;SDS011;58663;52.040;4.634;2023-04-05T00:57:03;8.88;;;4.93;;
70997;SDS011;58663;52.040;4.634;2023-04-05T00:59:30;12.15;;;5.32;;
70997;SDS011;58663;52.040;4.634;2023-04-05T01:01:59;7.85;;;4.65;;
70997;SDS011;58663;52.040;4.634;2023-04-05T01:04:29;10.70;;;5.43;;
70997;SDS011;58663;52.040;4.634;2023-04-05T01:07:06;9.70;;;5.68;;
70997;SDS011;58663;52.040;4.634;2023-04-05T01:09:44;10.18;;;5.13;;
70997;SDS011;58663;52.040;4.634;2023-04-05T01:12:14;8.20;;;5.18;;
70997;SDS011;58663;52.040;4.634;2023-04-05T01:14:42;7.93;;;5.35;;
70997;SDS011;58663;52.040;4.634;2023-04-05T01:17:15;11.15;;;5.70;;
70997;SDS011;58663;52.040;4.634;2023-04-05T01:19:46;9.00;;;5.30;;
70997;SDS011;58663;52.040;4.634;2023-04-05T01:28:28;9.07;;;5.30;;
70997;SDS011;58663;52.040;4.634;2023-04-05T01:36:56;8.15;;;5.10;;
70997;SDS011;58663;52.040;4.634;2023-04-05T01:39:19;10.30;;;5.07;;
70997;SDS011;58663;52.040;4.634;2023-04-05T01:41:45;8.05;;;4.88;;
70997;SDS011;58663;52.040;4.634;2023-04-05T01:44:10;8.68;;;4.97;;
70997;SDS011;58663;52.040;4.634;2023-04-05T01:46:35;11.85;;;5.13;;
70997;SDS011;58663;52.040;4.634;2023-04-05T01:49:01;10.98;;;5.63;;
70997;SDS011;58663;52.040;4.634;2023-04-05T01:51:26;8.07;;;5.00;;
70997;SDS011;58663;52.040;4.634;2023-04-05T01:53:52;9.32;;;4.80;;
70997;SDS011;58663;52.040;4.634;2023-04-05T01:56:17;11.60;;;5.55;;
70997;SDS011;58663;52.040;4.634;2023-04-05T01:58:42;8.50;;;5.20;;
70997;SDS011;58663;52.040;4.634;2023-04-05T02:01:08;7.07;;;4.57;;
70997;SDS011;58663;52.040;4.634;2023-04-05T02:03:33;11.85;;;5.43;;
70997;SDS011;58663;52.040;4.634;2023-04-05T02:05:58;8.88;;;4.97;;
70997;SDS011;58663;52.040;4.634;2023-04-05T02:08:24;9.65;;;4.28;;
70997;SDS011;58663;52.040;4.634;2023-04-05T02:10:51;9.98;;;5.25;;
70997;SDS011;58663;52.040;4.634;2023-04-05T02:13:17;7.75;;;5.10;;
70997;SDS011;58663;52.040;4.634;2023-04-05T02:15:46;7.95;;;5.20;;
70997;SDS011;58663;52.040;4.634;2023-04-05T02:18:12;12.20;;;5.63;;
70997;SDS011;58663;52.040;4.634;2023-04-05T02:20:37;12.10;;;5.20;;
70997;SDS011;58663;52.040;4.634;2023-04-05T02:23:03;10.98;;;5.78;;
70997;SDS011;58663;52.040;4.634;2023-04-05T02:25:28;9.05;;;5.03;;
70997;SDS011;58663;52.040;4.634;2023-04-05T02:27:53;7.43;;;4.55;;
70997;SDS011;58663;52.040;4.634;2023-04-05T02:30:19;9.77;;;4.45;;
70997;SDS011;58663;52.040;4.634;2023-04-05T02:32:45;9.80;;;5.50;;
70997;SDS011;58663;52.040;4.634;2023-04-05T02:35:10;8.38;;;4.90;;
70997;SDS011;58663;52.040;4.634;2023-04-05T02:37:36;10.52;;;4.78;;
70997;SDS011;58663;52.040;4.634;2023-04-05T02:40:04;9.30;;;4.80;;
70997;SDS011;58663;52.040;4.634;2023-04-05T02:42:30;9.63;;;5.07;;
70997;SDS011;58663;52.040;4.634;2023-04-05T02:44:55;7.72;;;5.07;;
70997;SDS011;58663;52.040;4.634;2023-04-05T02:47:21;13.90;;;6.03;;
70997;SDS011;58663;52.040;4.634;2023-04-05T02:49:47;8.13;;;4.65;;
70997;SDS011;58663;52.040;4.634;2023-04-05T02:52:13;12.85;;;5.25;;
70997;SDS011;58663;52.040;4.634;2023-04-05T02:54:38;9.18;;;4.70;;
70997;SDS011;58663;52.040;4.634;2023-04-05T02:57:03;10.65;;;5.32;;
70997;SDS011;58663;52.040;4.634;2023-04-05T02:59:29;8.80;;;4.97;;
70997;SDS011;58663;52.040;4.634;2023-04-05T03:01:54;7.13;;;4.30;;
70997;SDS011;58663;52.040;4.634;2023-04-05T03:04:20;11.88;;;5.18;;
70997;SDS011;58663;52.040;4.634;2023-04-05T03:06:45;13.82;;;5.35;;
70997;SDS011;58663;52.040;4.634;2023-04-05T03:09:13;9.00;;;4.78;;
70997;SDS011;58663;52.040;4.634;2023-04-05T03:11:38;10.80;;;5.22;;
70997;SDS011;58663;52.040;4.634;2023-04-05T03:14:04;11.52;;;5.80;;
70997;SDS011;58663;52.040;4.634;2023-04-05T03:16:29;8.15;;;4.60;;
70997;SDS011;58663;52.040;4.634;2023-04-05T03:18:55;9.85;;;5.75;;
70997;SDS011;58663;52.040;4.634;2023-04-05T03:21:21;11.20;;;5.05;;
70997;SDS011;58663;52.040;4.634;2023-04-05T03:23:46;8.60;;;5.25;;
70997;SDS011;58663;52.040;4.634;2023-04-05T03:26:12;11.88;;;6.20;;
70997;SDS011;58663;52.040;4.634;2023-04-05T03:28:38;12.27;;;6.03;;
70997;SDS011;58663;52.040;4.634;2023-04-05T03:31:07;6.33;;;4.20;;
70997;SDS011;58663;52.040;4.634;2023-04-05T03:33:33;9.45;;;5.10;;
70997;SDS011;58663;52.040;4.634;2023-04-05T03:35:58;14.88;;;6.07;;
70997;SDS011;58663;52.040;4.634;2023-04-05T03:38:24;10.50;;;5.40;;
70997;SDS011;58663;52.040;4.634;2023-04-05T03:40:49;11.52;;;5.70;;
70997;SDS011;58663;52.040;4.634;2023-04-05T03:43:14;7.43;;;4.60;;
70997;SDS011;58663;52.040;4.634;2023-04-05T03:45:40;12.27;;;5.63;;
70997;SDS011;58663;52.040;4.634;2023-04-05T03:48:06;9.27;;;5.25;;
70997;SDS011;58663;52.040;4.634;2023-04-05T03:50:31;9.18;;;4.43;;
70997;SDS011;58663;52.040;4.634;2023-04-05T03:52:56;8.88;;;4.63;;
70997;SDS011;58663;52.040;4.634;2023-04-05T03:55:22;11.45;;;6.03;;
70997;SDS011;58663;52.040;4.634;2023-04-05T03:57:47;11.20;;;4.88;;
70997;SDS011;58663;52.040;4.634;2023-04-05T04:00:13;9.55;;;5.43;;
70997;SDS011;58663;52.040;4.634;2023-04-05T04:02:48;11.18;;;5.47;;
70997;SDS011;58663;52.040;4.634;2023-04-05T04:05:14;7.15;;;4.72;;
70997;SDS011;58663;52.040;4.634;2023-04-05T04:07:40;11.00;;;5.25;;
70997;SDS011;58663;52.040;4.634;2023-04-05T04:10:07;10.73;;;5.68;;
70997;SDS011;58663;52.040;4.634;2023-04-05T04:12:33;8.57;;;4.93;;
70997;SDS011;58663;52.040;4.634;2023-04-05T04:14:58;10.55;;;5.72;;
70997;SDS011;58663;52.040;4.634;2023-04-05T04:17:28;9.43;;;5.50;;
70997;SDS011;58663;52.040;4.634;2023-04-05T04:19:57;9.88;;;5.35;;
70997;SDS011;58663;52.040;4.634;2023-04-05T04:22:23;12.35;;;5.72;;
70997;SDS011;58663;52.040;4.634;2023-04-05T04:24:57;12.98;;;5.43;;
70997;SDS011;58663;52.040;4.634;2023-04-05T04:27:26;11.77;;;4.97;;
70997;SDS011;58663;52.040;4.634;2023-04-05T04:29:54;11.68;;;5.78;;
70997;SDS011;58663;52.040;4.634;2023-04-05T04:32:27;12.60;;;6.88;;
70997;SDS011;58663;52.040;4.634;2023-04-05T04:35:14;12.00;;;5.75;;
70997;SDS011;58663;52.040;4.634;2023-04-05T04:40:11;11.80;;;5.80;;
70997;SDS011;58663;52.040;4.634;2023-04-05T04:42:41;10.00;;;5.53;;
70997;SDS011;58663;52.040;4.634;2023-04-05T04:45:10;8.60;;;5.32;;
70997;SDS011;58663;52.040;4.634;2023-04-05T04:47:36;11.80;;;5.00;;
70997;SDS011;58663;52.040;4.634;2023-04-05T04:50:02;10.63;;;5.32;;
70997;SDS011;58663;52.040;4.634;2023-04-05T04:52:28;9.55;;;4.85;;
70997;SDS011;58663;52.040;4.634;2023-04-05T04:54:54;11.65;;;5.03;;
70997;SDS011;58663;52.040;4.634;2023-04-05T04:57:20;7.43;;;4.95;;
70997;SDS011;58663;52.040;4.634;2023-04-05T04:59:45;13.68;;;6.70;;
70997;SDS011;58663;52.040;4.634;2023-04-05T05:02:10;7.82;;;5.03;;
70997;SDS011;58663;52.040;4.634;2023-04-05T05:04:36;9.50;;;4.60;;
70997;SDS011;58663;52.040;4.634;2023-04-05T05:07:01;11.85;;;5.95;;
70997;SDS011;58663;52.040;4.634;2023-04-05T05:09:26;11.10;;;5.25;;
70997;SDS011;58663;52.040;4.634;2023-04-05T05:11:52;8.68;;;5.28;;
70997;SDS011;58663;52.040;4.634;2023-04-05T05:14:17;12.00;;;5.38;;
70997;SDS011;58663;52.040;4.634;2023-04-05T05:16:42;13.85;;;6.40;;
70997;SDS011;58663;52.040;4.634;2023-04-05T05:19:08;12.00;;;5.88;;
70997;SDS011;58663;52.040;4.634;2023-04-05T05:21:33;11.38;;;6.15;;
70997;SDS011;58663;52.040;4.634;2023-04-05T05:24:00;15.85;;;6.45;;
70997;SDS011;58663;52.040;4.634;2023-04-05T05:26:25;8.70;;;4.90;;
70997;SDS011;58663;52.040;4.634;2023-04-05T05:28:51;10.63;;;6.28;;
70997;SDS011;58663;52.040;4.634;2023-04-05T05:31:16;11.32;;;5.72;;
70997;SDS011;58663;52.040;4.634;2023-04-05T05:33:42;14.45;;;6.30;;
70997;SDS011;58663;52.040;4.634;2023-04-05T05:36:11;14.18;;;6.90;;
70997;SDS011;58663;52.040;4.634;2023-04-05T05:38:37;15.32;;;7.22;;
70997;SDS011;58663;52.040;4.634;2023-04-05T05:41:02;13.05;;;5.90;;
70997;SDS011;58663;52.040;4.634;2023-04-05T05:43:27;12.48;;;6.30;;
70997;SDS011;58663;52.040;4.634;2023-04-05T05:45:53;10.68;;;7.10;;
70997;SDS011;58663;52.040;4.634;2023-04-05T05:48:18;13.00;;;7.05;;
70997;SDS011;58663;52.040;4.634;2023-04-05T05:50:43;10.77;;;6.85;;
70997;SDS011;58663;52.040;4.634;2023-04-05T05:53:13;18.25;;;7.35;;
70997;SDS011;58663;52.040;4.634;2023-04-05T05:55:38;15.38;;;7.45;;
70997;SDS011;58663;52.040;4.634;2023-04-05T05:58:03;12.25;;;7.65;;
70997;SDS011;58663;52.040;4.634;2023-04-05T06:00:29;14.10;;;7.68;;
70997;SDS011;58663;52.040;4.634;2023-04-05T06:02:54;13.55;;;7.25;;
70997;SDS011;58663;52.040;4.634;2023-04-05T06:05:19;11.95;;;7.57;;
70997;SDS011;58663;52.040;4.634;2023-04-05T06:07:45;11.93;;;6.88;;
70997;SDS011;58663;52.040;4.634;2023-04-05T06:10:11;11.50;;;6.43;;
70997;SDS011;58663;52.040;4.634;2023-04-05T06:12:37;12.18;;;6.32;;
70997;SDS011;58663;52.040;4.634;2023-04-05T06:15:03;13.27;;;7.68;;
70997;SDS011;58663;52.040;4.634;2023-04-05T06:17:28;14.48;;;7.30;;
70997;SDS011;58663;52.040;4.634;2023-04-05T06:19:54;14.85;;;7.70;;
70997;SDS011;58663;52.040;4.634;2023-04-05T06:22:19;12.88;;;7.40;;
70997;SDS011;58663;52.040;4.634;2023-04-05T06:24:46;16.20;;;8.10;;
70997;SDS011;58663;52.040;4.634;2023-04-05T06:27:12;14.10;;;7.85;;
70997;SDS011;58663;52.040;4.634;2023-04-05T06:29:38;16.50;;;7.60;;
70997;SDS011;58663;52.040;4.634;2023-04-05T06:32:04;13.73;;;7.50;;
70997;SDS011;58663;52.040;4.634;2023-04-05T06:34:29;12.65;;;8.15;;
70997;SDS011;58663;52.040;4.634;2023-04-05T06:36:54;16.85;;;8.65;;
70997;SDS011;58663;52.040;4.634;2023-04-05T06:39:20;21.40;;;8.38;;
70997;SDS011;58663;52.040;4.634;2023-04-05T06:41:46;14.52;;;7.90;;
70997;SDS011;58663;52.040;4.634;2023-04-05T06:44:11;22.08;;;9.15;;
70997;SDS011;58663;52.040;4.634;2023-04-05T06:46:36;21.55;;;9.25;;
70997;SDS011;58663;52.040;4.634;2023-04-05T06:49:02;18.67;;;8.77;;
70997;SDS011;58663;52.040;4.634;2023-04-05T06:51:27;15.57;;;9.23;;
70997;SDS011;58663;52.040;4.634;2023-04-05T06:53:54;19.58;;;10.00;;
70997;SDS011;58663;52.040;4.634;2023-04-05T06:56:19;17.50;;;9.77;;
70997;SDS011;58663;52.040;4.634;2023-04-05T06:58:45;14.13;;;8.68;;
70997;SDS011;58663;52.040;4.634;2023-04-05T07:01:11;18.05;;;8.93;;
70997;SDS011;58663;52.040;4.634;2023-04-05T07:03:36;15.27;;;10.25;;
70997;SDS011;58663;52.040;4.634;2023-04-05T07:06:01;17.20;;;8.50;;
70997;SDS011;58663;52.040;4.634;2023-04-05T07:08:30;14.52;;;8.60;;
70997;SDS011;58663;52.040;4.634;2023-04-05T07:10:56;12.80;;;7.82;;
70997;SDS011;58663;52.040;4.634;2023-04-05T07:13:22;15.88;;;8.40;;
70997;SDS011;58663;52.040;4.634;2023-04-05T07:15:48;13.75;;;8.77;;
70997;SDS011;58663;52.040;4.634;2023-04-05T07:18:15;12.85;;;7.60;;
70997;SDS011;58663;52.040;4.634;2023-04-05T07:20:40;15.85;;;8.63;;
70997;SDS011;58663;52.040;4.634;2023-04-05T07:23:06;16.02;;;7.43;;
70997;SDS011;58663;52.040;4.634;2023-04-05T07:25:31;13.32;;;8.05;;
70997;SDS011;58663;52.040;4.634;2023-04-05T07:27:57;16.45;;;7.15;;
70997;SDS011;58663;52.040;4.634;2023-04-05T07:30:24;11.55;;;6.97;;
70997;SDS011;58663;52.040;4.634;2023-04-05T07:32:50;11.23;;;7.22;;
70997;SDS011;58663;52.040;4.634;2023-04-05T07:35:16;11.38;;;7.47;;
70997;SDS011;58663;52.040;4.634;2023-04-05T07:37:41;9.77;;;6.47;;
70997;SDS011;58663;52.040;4.634;2023-04-05T07:40:06;18.25;;;7.53;;
70997;SDS011;58663;52.040;4.634;2023-04-05T07:42:34;11.30;;;6.45;;
70997;SDS011;58663;52.040;4.634;2023-04-05T07:45:00;11.82;;;7.10;;
70997;SDS011;58663;52.040;4.634;2023-04-05T07:47:25;11.07;;;6.72;;
70997;SDS011;58663;52.040;4.634;2023-04-05T07:49:51;16.23;;;6.88;;
70997;SDS011;58663;52.040;4.634;2023-04-05T07:52:16;14.02;;;7.38;;
70997;SDS011;58663;52.040;4.634;2023-04-05T07:54:42;11.68;;;7.00;;
70997;SDS011;58663;52.040;4.634;2023-04-05T07:57:08;10.73;;;6.53;;
70997;SDS011;58663;52.040;4.634;2023-04-05T07:59:34;13.73;;;6.80;;
70997;SDS011;58663;52.040;4.634;2023-04-05T08:02:00;9.43;;;6.47;;
70997;SDS011;58663;52.040;4.634;2023-04-05T08:04:25;17.73;;;6.55;;
70997;SDS011;58663;52.040;4.634;2023-04-05T08:06:51;9.90;;;7.03;;
70997;SDS011;58663;52.040;4.634;2023-04-05T08:09:16;12.88;;;7.72;;
70997;SDS011;58663;52.040;4.634;2023-04-05T08:11:42;13.43;;;7.75;;
70997;SDS011;58663;52.040;4.634;2023-04-05T08:14:08;18.05;;;6.95;;
70997;SDS011;58663;52.040;4.634;2023-04-05T08:16:34;15.07;;;7.20;;
70997;SDS011;58663;52.040;4.634;2023-04-05T08:18:59;13.15;;;6.95;;
70997;SDS011;58663;52.040;4.634;2023-04-05T08:21:25;11.15;;;6.18;;
70997;SDS011;58663;52.040;4.634;2023-04-05T08:23:50;11.60;;;6.63;;
70997;SDS011;58663;52.040;4.634;2023-04-05T08:26:16;10.38;;;6.28;;
70997;SDS011;58663;52.040;4.634;2023-04-05T08:28:41;9.63;;;6.18;;
70997;SDS011;58663;52.040;4.634;2023-04-05T08:31:07;11.45;;;6.20;;
70997;SDS011;58663;52.040;4.634;2023-04-05T08:33:32;11.57;;;6.50;;
70997;SDS011;58663;52.040;4.634;2023-04-05T08:36:02;11.40;;;6.47;;
70997;SDS011;58663;52.040;4.634;2023-04-05T08:38:28;11.40;;;6.28;;
70997;SDS011;58663;52.040;4.634;2023-04-05T08:40:54;10.75;;;6.65;;
70997;SDS011;58663;52.040;4.634;2023-04-05T08:46:23;8.65;;;5.57;;
70997;SDS011;58663;52.040;4.634;2023-04-05T08:48:49;13.38;;;5.93;;
70997;SDS011;58663;52.040;4.634;2023-04-05T08:51:21;9.00;;;5.70;;
70997;SDS011;58663;52.040;4.634;2023-04-05T08:53:47;10.85;;;5.75;;
70997;SDS011;58663;52.040;4.634;2023-04-05T08:56:18;12.25;;;6.07;;
70997;SDS011;58663;52.040;4.634;2023-04-05T08:58:47;10.27;;;4.65;;
70997;SDS011;58663;52.040;4.634;2023-04-05T09:01:20;10.65;;;5.63;;
70997;SDS011;58663;52.040;4.634;2023-04-05T09:03:46;7.97;;;5.38;;
70997;SDS011;58663;52.040;4.634;2023-04-05T09:06:13;9.20;;;5.25;;
70997;SDS011;58663;52.040;4.634;2023-04-05T09:08:39;9.27;;;4.90;;
70997;SDS011;58663;52.040;4.634;2023-04-05T09:11:05;7.78;;;4.97;;
70997;SDS011;58663;52.040;4.634;2023-04-05T09:13:30;13.02;;;4.85;;
70997;SDS011;58663;52.040;4.634;2023-04-05T09:15:56;7.93;;;4.72;;
70997;SDS011;58663;52.040;4.634;2023-04-05T09:18:21;11.95;;;4.63;;
70997;SDS011;58663;52.040;4.634;2023-04-05T09:20:47;8.70;;;5.38;;
70997;SDS011;58663;52.040;4.634;2023-04-05T09:23:12;9.23;;;5.20;;
70997;SDS011;58663;52.040;4.634;2023-04-05T09:25:38;9.23;;;4.88;;
70997;SDS011;58663;52.040;4.634;2023-04-05T09:28:06;7.95;;;5.03;;
70997;SDS011;58663;52.040;4.634;2023-04-05T09:30:35;6.82;;;4.68;;
70997;SDS011;58663;52.040;4.634;2023-04-05T09:33:01;9.73;;;4.70;;
70997;SDS011;58663;52.040;4.634;2023-04-05T09:35:28;6.82;;;4.45;;
70997;SDS011;58663;52.040;4.634;2023-04-05T09:37:56;9.15;;;5.28;;
70997;SDS011;58663;52.040;4.634;2023-04-05T09:40:44;9.50;;;4.60;;
70997;SDS011;58663;52.040;4.634;2023-04-05T09:43:10;8.15;;;4.57;;
70997;SDS011;58663;52.040;4.634;2023-04-05T09:45:40;11.05;;;4.88;;
70997;SDS011;58663;52.040;4.634;2023-04-05T09:48:06;9.17;;;5.40;;
70997;SDS011;58663;52.040;4.634;2023-04-05T09:50:33;9.15;;;4.32;;
70997;SDS011;58663;52.040;4.634;2023-04-05T09:53:08;10.73;;;4.95;;
70997;SDS011;58663;52.040;4.634;2023-04-05T09:55:37;7.95;;;5.13;;
70997;SDS011;58663;52.040;4.634;2023-04-05T09:58:02;12.60;;;5.25;;
70997;SDS011;58663;52.040;4.634;2023-04-05T10:00:28;10.52;;;5.30;;
70997;SDS011;58663;52.040;4.634;2023-04-05T10:02:55;11.82;;;5.07;;
70997;SDS011;58663;52.040;4.634;2023-04-05T10:05:25;8.95;;;5.05;;
70997;SDS011;58663;52.040;4.634;2023-04-05T10:07:51;9.10;;;5.20;;
70997;SDS011;58663;52.040;4.634;2023-04-05T10:10:18;9.75;;;5.18;;
70997;SDS011;58663;52.040;4.634;2023-04-05T10:12:43;7.97;;;4.53;;
70997;SDS011;58663;52.040;4.634;2023-04-05T10:15:10;9.48;;;4.63;;
70997;SDS011;58663;52.040;4.634;2023-04-05T10:17:41;11.15;;;5.18;;
70997;SDS011;58663;52.040;4.634;2023-04-05T10:20:09;8.65;;;5.25;;
70997;SDS011;58663;52.040;4.634;2023-04-05T10:25:12;8.75;;;5.00;;
70997;SDS011;58663;52.040;4.634;2023-04-05T10:27:52;6.95;;;4.90;;
70997;SDS011;58663;52.040;4.634;2023-04-05T10:30:19;9.20;;;5.43;;
70997;SDS011;58663;52.040;4.634;2023-04-05T10:32:52;8.20;;;5.68;;
70997;SDS011;58663;52.040;4.634;2023-04-05T10:35:43;9.57;;;5.65;;
70997;SDS011;58663;52.040;4.634;2023-04-05T10:38:24;13.45;;;5.97;;
70997;SDS011;58663;52.040;4.634;2023-04-05T10:40:56;12.27;;;5.43;;
70997;SDS011;58663;52.040;4.634;2023-04-05T10:43:24;8.23;;;5.10;;
70997;SDS011;58663;52.040;4.634;2023-04-05T10:45:51;9.05;;;5.38;;
70997;SDS011;58663;52.040;4.634;2023-04-05T10:48:30;12.13;;;5.50;;
70997;SDS011;58663;52.040;4.634;2023-04-05T10:51:01;10.98;;;5.57;;
70997;SDS011;58663;52.040;4.634;2023-04-05T10:53:27;11.20;;;6.00;;
70997;SDS011;58663;52.040;4.634;2023-04-05T10:55:54;10.05;;;5.28;;
70997;SDS011;58663;52.040;4.634;2023-04-05T10:58:22;9.02;;;4.93;;
70997;SDS011;58663;52.040;4.634;2023-04-05T11:00:49;8.45;;;5.13;;
70997;SDS011;58663;52.040;4.634;2023-04-05T11:11:22;13.25;;;5.45;;
70997;SDS011;58663;52.040;4.634;2023-04-05T11:13:49;9.80;;;5.57;;
70997;SDS011;58663;52.040;4.634;2023-04-05T11:16:16;9.65;;;5.90;;
70997;SDS011;58663;52.040;4.634;2023-04-05T11:18:45;9.20;;;5.68;;
70997;SDS011;58663;52.040;4.634;2023-04-05T11:21:24;12.23;;;6.07;;
70997;SDS011;58663;52.040;4.634;2023-04-05T11:27:03;10.25;;;6.13;;
70997;SDS011;58663;52.040;4.634;2023-04-05T11:32:11;9.80;;;5.82;;
70997;SDS011;58663;52.040;4.634;2023-04-05T11:34:37;9.02;;;5.63;;
70997;SDS011;58663;52.040;4.634;2023-04-05T11:37:05;11.30;;;6.47;;
70997;SDS011;58663;52.040;4.634;2023-04-05T11:39:31;13.10;;;6.55;;
70997;SDS011;58663;52.040;4.634;2023-04-05T11:42:08;9.63;;;6.65;;
70997;SDS011;58663;52.040;4.634;2023-04-05T11:44:46;12.48;;;5.53;;
70997;SDS011;58663;52.040;4.634;2023-04-05T11:47:12;8.95;;;5.82;;
70997;SDS011;58663;52.040;4.634;2023-04-05T11:49:41;8.57;;;5.65;;
70997;SDS011;58663;52.040;4.634;2023-04-05T11:52:24;11.00;;;6.75;;
70997;SDS011;58663;52.040;4.634;2023-04-05T11:54:50;8.38;;;5.50;;
70997;SDS011;58663;52.040;4.634;2023-04-05T11:57:20;8.25;;;6.05;;
70997;SDS011;58663;52.040;4.634;2023-04-05T11:59:48;11.40;;;6.20;;
70997;SDS011;58663;52.040;4.634;2023-04-05T12:02:15;13.10;;;6.38;;
70997;SDS011;58663;52.040;4.634;2023-04-05T12:04:41;10.60;;;5.88;;
70997;SDS011;58663;52.040;4.634;2023-04-05T12:07:10;14.60;;;6.93;;
70997;SDS011;58663;52.040;4.634;2023-04-05T12:09:56;12.82;;;6.95;;
70997;SDS011;58663;52.040;4.634;2023-04-05T12:12:22;10.93;;;6.65;;
70997;SDS011;58663;52.040;4.634;2023-04-05T12:14:47;16.35;;;6.65;;
70997;SDS011;58663;52.040;4.634;2023-04-05T12:17:13;9.27;;;6.72;;
70997;SDS011;58663;52.040;4.634;2023-04-05T12:19:38;9.82;;;6.10;;
70997;SDS011;58663;52.040;4.634;2023-04-05T12:22:03;11.18;;;6.18;;
70997;SDS011;58663;52.040;4.634;2023-04-05T12:24:29;12.48;;;6.65;;
70997;SDS011;58663;52.040;4.634;2023-04-05T12:26:55;12.82;;;6.60;;
70997;SDS011;58663;52.040;4.634;2023-04-05T12:29:20;11.10;;;6.32;;
70997;SDS011;58663;52.040;4.634;2023-04-05T12:31:49;10.20;;;6.18;;
70997;SDS011;58663;52.040;4.634;2023-04-05T12:34:15;12.75;;;6.60;;
70997;SDS011;58663;52.040;4.634;2023-04-05T12:36:47;11.65;;;6.32;;
70997;SDS011;58663;52.040;4.634;2023-04-05T12:39:14;10.85;;;6.35;;
70997;SDS011;58663;52.040;4.634;2023-04-05T12:41:40;14.85;;;7.15;;
70997;SDS011;58663;52.040;4.634;2023-04-05T12:44:15;12.15;;;6.68;;
70997;SDS011;58663;52.040;4.634;2023-04-05T12:46:47;10.18;;;6.15;;
70997;SDS011;58663;52.040;4.634;2023-04-05T12:49:16;10.02;;;5.75;;
70997;SDS011;58663;52.040;4.634;2023-04-05T12:51:43;10.18;;;6.75;;
70997;SDS011;58663;52.040;4.634;2023-04-05T12:54:13;12.45;;;6.50;;
70997;SDS011;58663;52.040;4.634;2023-04-05T12:56:46;9.32;;;6.25;;
70997;SDS011;58663;52.040;4.634;2023-04-05T12:59:13;11.57;;;6.47;;
70997;SDS011;58663;52.040;4.634;2023-04-05T13:01:39;14.43;;;6.68;;
70997;SDS011;58663;52.040;4.634;2023-04-05T13:04:04;14.73;;;7.05;;
70997;SDS011;58663;52.040;4.634;2023-04-05T13:06:30;15.55;;;6.32;;
70997;SDS011;58663;52.040;4.634;2023-04-05T13:08:58;12.75;;;7.20;;
70997;SDS011;58663;52.040;4.634;2023-04-05T13:11:23;10.57;;;6.93;;
70997;SDS011;58663;52.040;4.634;2023-04-05T13:13:49;12.27;;;7.07;;
70997;SDS011;58663;52.040;4.634;2023-04-05T13:16:14;11.32;;;6.30;;
70997;SDS011;58663;52.040;4.634;2023-04-05T13:18:40;13.15;;;7.03;;
70997;SDS011;58663;52.040;4.634;2023-04-05T13:21:06;11.77;;;6.57;;
70997;SDS011;58663;52.040;4.634;2023-04-05T13:23:33;14.25;;;6.90;;
70997;SDS011;58663;52.040;4.634;2023-04-05T13:25:59;9.45;;;6.50;;
70997;SDS011;58663;52.040;4.634;2023-04-05T13:28:24;13.65;;;7.05;;
70997;SDS011;58663;52.040;4.634;2023-04-05T13:30:50;13.75;;;7.80;;
70997;SDS011;58663;52.040;4.634;2023-04-05T13:33:16;13.88;;;7.22;;
70997;SDS011;58663;52.040;4.634;2023-04-05T13:35:42;13.05;;;7.18;;
70997;SDS011;58663;52.040;4.634;2023-04-05T13:38:07;11.27;;;6.55;;
70997;SDS011;58663;52.040;4.634;2023-04-05T13:40:33;11.68;;;6.43;;
70997;SDS011;58663;52.040;4.634;2023-04-05T13:42:58;13.15;;;7.10;;
70997;SDS011;58663;52.040;4.634;2023-04-05T13:45:24;13.55;;;6.40;;
70997;SDS011;58663;52.040;4.634;2023-04-05T13:47:49;13.80;;;6.95;;
70997;SDS011;58663;52.040;4.634;2023-04-05T13:50:14;13.50;;;6.68;;
70997;SDS011;58663;52.040;4.634;2023-04-05T13:52:40;11.77;;;6.88;;
70997;SDS011;58663;52.040;4.634;2023-04-05T13:55:05;14.05;;;7.38;;
70997;SDS011;58663;52.040;4.634;2023-04-05T13:57:31;14.77;;;7.93;;
70997;SDS011;58663;52.040;4.634;2023-04-05T13:59:56;11.43;;;7.22;;
70997;SDS011;58663;52.040;4.634;2023-04-05T14:02:23;12.93;;;7.47;;
70997;SDS011;58663;52.040;4.634;2023-04-05T14:04:51;12.60;;;6.65;;
70997;SDS011;58663;52.040;4.634;2023-04-05T14:07:19;13.57;;;7.47;;
70997;SDS011;58663;52.040;4.634;2023-04-05T14:09:45;11.85;;;6.97;;
70997;SDS011;58663;52.040;4.634;2023-04-05T14:12:11;14.30;;;7.35;;
70997;SDS011;58663;52.040;4.634;2023-04-05T14:14:36;13.23;;;7.18;;
70997;SDS011;58663;52.040;4.634;2023-04-05T14:17:02;12.00;;;7.38;;
70997;SDS011;58663;52.040;4.634;2023-04-05T14:19:27;14.48;;;7.10;;
70997;SDS011;58663;52.040;4.634;2023-04-05T14:21:52;13.18;;;7.22;;
70997;SDS011;58663;52.040;4.634;2023-04-05T14:24:18;13.27;;;7.88;;
70997;SDS011;58663;52.040;4.634;2023-04-05T14:26:43;14.07;;;7.70;;
70997;SDS011;58663;52.040;4.634;2023-04-05T14:29:13;16.77;;;7.85;;
70997;SDS011;58663;52.040;4.634;2023-04-05T14:31:38;14.30;;;7.60;;
70997;SDS011;58663;52.040;4.634;2023-04-05T14:34:04;13.80;;;7.22;;
70997;SDS011;58663;52.040;4.634;2023-04-05T14:36:29;15.50;;;8.00;;
70997;SDS011;58663;52.040;4.634;2023-04-05T14:38:55;13.60;;;7.90;;
70997;SDS011;58663;52.040;4.634;2023-04-05T14:41:20;12.30;;;7.45;;
70997;SDS011;58663;52.040;4.634;2023-04-05T14:43:45;13.52;;;8.07;;
70997;SDS011;58663;52.040;4.634;2023-04-05T14:46:11;11.57;;;7.25;;
70997;SDS011;58663;52.040;4.634;2023-04-05T14:48:36;13.88;;;8.38;;
70997;SDS011;58663;52.040;4.634;2023-04-05T14:51:02;13.73;;;8.18;;
70997;SDS011;58663;52.040;4.634;2023-04-05T14:53:28;14.38;;;8.15;;
70997;SDS011;58663;52.040;4.634;2023-04-05T14:55:53;12.57;;;8.13;;
70997;SDS011;58663;52.040;4.634;2023-04-05T14:58:19;12.95;;;8.25;;
70997;SDS011;58663;52.040;4.634;2023-04-05T15:00:44;14.00;;;7.82;;
70997;SDS011;58663;52.040;4.634;2023-04-05T15:03:12;12.95;;;8.20;;
70997;SDS011;58663;52.040;4.634;2023-04-05T15:05:37;12.10;;;7.70;;
70997;SDS011;58663;52.040;4.634;2023-04-05T15:08:03;15.38;;;9.55;;
70997;SDS011;58663;52.040;4.634;2023-04-05T15:10:28;17.23;;;8.10;;